createdAt,value
2022-11-08T00:00:07.324Z,11.52
2022-11-08T00:02:35.544Z,11.52
2022-11-08T00:05:23.179Z,11.62
2022-11-08T00:08:08.624Z,11.57
2022-11-08T00:10:54.102Z,11.55
2022-11-08T00:13:39.786Z,11.57
2022-11-08T00:16:08.191Z,11.65
2022-11-08T00:18:36.199Z,11.59
2022-11-08T00:21:05.607Z,11.64
2022-11-08T00:23:33.592Z,11.68
2022-11-08T00:26:01.505Z,11.70
2022-11-08T00:28:29.427Z,11.69
2022-11-08T00:30:57.387Z,11.72
2022-11-08T00:33:25.346Z,11.71
2022-11-08T00:35:53.266Z,11.74
2022-11-08T00:38:22.607Z,11.80
2022-11-08T00:40:50.540Z,11.83
2022-11-08T00:43:18.599Z,11.80
2022-11-08T00:45:46.540Z,11.80
2022-11-08T00:48:14.741Z,11.80
2022-11-08T00:50:42.864Z,11.82
2022-11-08T00:53:10.804Z,11.81
2022-11-08T00:55:40.172Z,11.79
2022-11-08T00:58:08.172Z,11.75
2022-11-08T01:00:36.179Z,11.71
2022-11-08T01:03:22.558Z,11.73
2022-11-08T01:05:51.897Z,11.69
2022-11-08T01:08:21.137Z,11.65
2022-11-08T01:10:52.817Z,11.64
2022-11-08T01:13:20.947Z,11.63
2022-11-08T01:15:49.258Z,11.58
2022-11-08T01:18:19.106Z,11.54
2022-11-08T01:20:49.616Z,11.48
2022-11-08T01:23:18.957Z,11.45
2022-11-08T01:25:48.412Z,11.43
2022-11-08T01:28:18.670Z,11.41
2022-11-08T01:30:46.913Z,11.41
2022-11-08T01:33:15.887Z,11.43
2022-11-08T01:35:46.360Z,11.42
2022-11-08T01:38:15.387Z,11.42
2022-11-08T01:40:45.407Z,11.37
2022-11-08T01:43:36.757Z,11.43
2022-11-08T01:46:36.221Z,11.38
2022-11-08T01:49:34.301Z,11.36
2022-11-08T01:52:11.579Z,11.38
2022-11-08T01:54:45.084Z,11.41
2022-11-08T01:57:17.444Z,11.37
2022-11-08T01:59:50.860Z,11.34
2022-11-08T02:02:19.646Z,11.34
2022-11-08T02:04:48.767Z,11.30
2022-11-08T02:07:17.825Z,11.29
2022-11-08T02:09:48.150Z,11.25
2022-11-08T02:12:18.269Z,11.21
2022-11-08T02:14:47.577Z,11.20
2022-11-08T02:17:16.019Z,11.16
2022-11-08T02:19:46.456Z,11.20
2022-11-08T02:22:32.417Z,11.16
2022-11-08T02:25:01.952Z,11.16
2022-11-08T02:27:29.926Z,11.13
2022-11-08T02:29:58.198Z,11.13
2022-11-08T02:32:26.155Z,11.12
2022-11-08T02:34:57.214Z,11.11
2022-11-08T02:37:27.128Z,11.15
2022-11-08T02:39:55.108Z,11.22
2022-11-08T02:42:24.405Z,11.20
2022-11-08T02:44:52.361Z,11.27
2022-11-08T02:47:20.357Z,11.23
2022-11-08T02:49:48.348Z,11.28
2022-11-08T02:52:16.267Z,11.28
2022-11-08T02:54:44.200Z,11.22
2022-11-08T02:57:12.187Z,11.28
2022-11-08T02:59:41.476Z,11.36
2022-11-08T03:02:09.564Z,11.37
2022-11-08T03:04:37.543Z,11.43
2022-11-08T03:07:05.561Z,11.46
2022-11-08T03:09:33.537Z,11.50
2022-11-08T03:12:01.482Z,11.55
2022-11-08T03:14:29.505Z,11.54
2022-11-08T03:16:58.850Z,11.58
2022-11-08T03:19:26.793Z,11.57
2022-11-08T03:21:54.732Z,11.55
2022-11-08T03:24:22.642Z,11.56
2022-11-08T03:26:50.663Z,11.60
2022-11-08T03:29:18.600Z,11.58
2022-11-08T03:31:46.658Z,11.50
2022-11-08T03:34:16.060Z,11.54
2022-11-08T03:36:44.075Z,11.48
2022-11-08T03:39:12.171Z,11.43
2022-11-08T03:41:40.168Z,11.39
2022-11-08T03:44:08.112Z,11.33
2022-11-08T03:46:36.119Z,11.34
2022-11-08T03:49:04.142Z,11.26
2022-11-08T03:51:33.495Z,11.20
2022-11-08T03:54:01.416Z,11.17
2022-11-08T03:56:29.382Z,11.15
2022-11-08T03:58:57.288Z,11.12
2022-11-08T04:01:25.428Z,11.10
2022-11-08T04:03:53.492Z,11.08
2022-11-08T04:06:21.457Z,11.07
2022-11-08T04:08:50.928Z,11.09
2022-11-08T04:11:36.572Z,11.04
2022-11-08T04:14:22.096Z,11.01
2022-11-08T04:16:50.171Z,10.99
2022-11-08T04:19:35.701Z,10.96
2022-11-08T04:22:04.391Z,10.92
2022-11-08T04:24:33.747Z,10.89
2022-11-08T04:27:02.696Z,10.89
2022-11-08T04:29:31.226Z,10.85
2022-11-08T04:31:59.188Z,10.84
2022-11-08T04:34:27.126Z,10.83
2022-11-08T04:36:55.828Z,10.79
2022-11-08T04:39:23.792Z,10.76
2022-11-08T04:41:56.453Z,10.72
2022-11-08T04:44:27.301Z,10.71
2022-11-08T04:46:55.253Z,10.72
2022-11-08T04:49:23.178Z,10.67
2022-11-08T04:51:51.304Z,10.59
2022-11-08T04:54:19.260Z,10.65
2022-11-08T04:56:47.193Z,10.56
2022-11-08T04:59:16.595Z,10.57
2022-11-08T05:01:44.691Z,10.55
2022-11-08T05:04:12.723Z,10.53
2022-11-08T05:06:40.789Z,10.51
2022-11-08T05:09:08.705Z,10.51
2022-11-08T05:11:36.629Z,10.41
2022-11-08T05:14:04.581Z,10.49
2022-11-08T05:16:34.067Z,10.45
2022-11-08T05:19:02.229Z,10.38
2022-11-08T05:21:47.557Z,10.35
2022-11-08T05:24:17.940Z,10.31
2022-11-08T05:26:48.091Z,10.24
2022-11-08T05:29:17.924Z,10.24
2022-11-08T05:31:47.279Z,10.27
2022-11-08T05:34:15.220Z,10.30
2022-11-08T05:36:43.222Z,10.24
2022-11-08T05:39:11.219Z,10.27
2022-11-08T05:41:39.172Z,10.26
2022-11-08T05:44:07.201Z,10.23
2022-11-08T05:46:35.276Z,10.20
2022-11-08T05:49:04.636Z,10.17
2022-11-08T05:51:32.924Z,10.16
2022-11-08T05:54:00.908Z,10.14
2022-11-08T05:56:28.930Z,10.11
2022-11-08T05:58:57.038Z,10.20
2022-11-08T06:01:25.170Z,10.13
2022-11-08T06:03:53.248Z,10.14
2022-11-08T06:06:23.229Z,10.09
2022-11-08T06:08:52.974Z,10.12
2022-11-08T06:11:24.606Z,10.12
2022-11-08T06:13:53.971Z,10.06
2022-11-08T06:16:23.913Z,10.03
2022-11-08T06:18:52.189Z,10.03
2022-11-08T06:21:22.992Z,10.05
2022-11-08T06:23:53.470Z,10.03
2022-11-08T06:26:21.585Z,10.02
2022-11-08T06:28:49.629Z,9.99
2022-11-08T06:31:17.663Z,10.02
2022-11-08T06:33:46.400Z,9.97
2022-11-08T06:36:14.569Z,9.89
2022-11-08T06:38:43.886Z,9.86
2022-11-08T06:41:19.740Z,9.81
2022-11-08T06:43:48.121Z,9.73
2022-11-08T06:46:16.697Z,9.65
2022-11-08T06:48:44.950Z,9.59
2022-11-08T06:51:12.919Z,9.56
2022-11-08T06:53:40.862Z,9.61
2022-11-08T06:56:10.891Z,9.63
2022-11-08T06:58:38.936Z,9.65
2022-11-08T07:01:08.297Z,9.65
2022-11-08T07:03:36.685Z,9.66
2022-11-08T07:06:05.656Z,9.66
2022-11-08T07:08:34.053Z,9.62
2022-11-08T07:11:02.575Z,9.61
2022-11-08T07:13:31.980Z,9.59
2022-11-08T07:16:00.902Z,9.56
2022-11-08T07:18:29.519Z,9.46
2022-11-08T07:21:01.340Z,9.50
2022-11-08T07:23:29.752Z,9.48
2022-11-08T07:25:57.841Z,9.47
2022-11-08T07:28:25.813Z,9.48
2022-11-08T07:30:59.089Z,9.46
2022-11-08T07:33:27.392Z,9.45
2022-11-08T07:35:55.548Z,9.48
2022-11-08T07:38:23.993Z,9.49
2022-11-08T07:40:52.011Z,9.52
2022-11-08T07:43:19.952Z,9.54
2022-11-08T07:45:48.608Z,9.61
2022-11-08T07:48:17.917Z,9.66
2022-11-08T07:50:47.650Z,9.72
2022-11-08T07:53:16.062Z,9.78
2022-11-08T07:55:46.934Z,9.85
2022-11-08T07:58:15.943Z,9.90
2022-11-08T08:00:45.389Z,9.97
2022-11-08T08:03:16.204Z,10.05
2022-11-08T08:05:46.774Z,10.09
2022-11-08T08:08:15.256Z,10.14
2022-11-08T08:10:43.299Z,10.19
2022-11-08T08:13:11.310Z,10.24
2022-11-08T08:15:39.483Z,10.28
2022-11-08T08:18:09.284Z,10.32
2022-11-08T08:20:38.843Z,10.40
2022-11-08T08:23:08.296Z,10.47
2022-11-08T08:25:36.291Z,10.55
2022-11-08T08:28:05.756Z,10.64
2022-11-08T08:30:34.372Z,10.70
2022-11-08T08:33:26.920Z,10.74
2022-11-08T08:35:53.867Z,10.81
2022-11-08T08:38:23.219Z,10.87
2022-11-08T08:40:52.286Z,10.89
2022-11-08T08:43:21.094Z,10.95
2022-11-08T08:45:49.910Z,10.98
2022-11-08T08:48:18.131Z,11.02
2022-11-08T08:50:46.138Z,11.08
2022-11-08T08:53:14.574Z,11.15
2022-11-08T08:55:43.930Z,11.16
2022-11-08T08:58:12.204Z,11.23
2022-11-08T09:03:28.704Z,11.31
2022-11-08T09:05:58.383Z,11.35
2022-11-08T09:08:26.581Z,11.38
2022-11-08T09:10:57.463Z,11.41
2022-11-08T09:13:27.236Z,11.41
2022-11-08T09:15:55.907Z,11.47
2022-11-08T09:18:24.085Z,11.50
2022-11-08T09:20:52.131Z,11.51
2022-11-08T09:23:20.390Z,11.54
2022-11-08T09:25:48.477Z,11.58
2022-11-08T09:28:18.808Z,11.62
2022-11-08T09:30:46.851Z,11.64
2022-11-08T09:33:15.171Z,11.66
2022-11-08T09:35:43.344Z,11.72
2022-11-08T09:38:11.271Z,11.77
2022-11-08T09:40:42.924Z,11.77
2022-11-08T09:43:40.035Z,11.81
2022-11-08T09:46:11.551Z,11.87
2022-11-08T09:48:43.102Z,11.92
2022-11-08T09:51:15.339Z,11.95
2022-11-08T09:53:50.447Z,12.03
2022-11-08T09:56:26.122Z,12.08
2022-11-08T09:59:02.088Z,12.10
2022-11-08T10:01:33.096Z,12.11
2022-11-08T10:04:04.088Z,12.16
2022-11-08T10:06:50.768Z,12.19
2022-11-08T10:09:29.788Z,12.18
2022-11-08T10:12:10.569Z,12.21
2022-11-08T10:14:54.376Z,12.15
2022-11-08T10:17:51.867Z,12.25
2022-11-08T10:20:30.241Z,12.25
2022-11-08T10:23:09.273Z,12.27
2022-11-08T10:25:45.346Z,12.26
2022-11-08T10:28:17.263Z,12.21
2022-11-08T10:30:50.068Z,12.15
2022-11-08T10:33:21.730Z,12.11
2022-11-08T10:36:02.190Z,12.11
2022-11-08T10:38:37.999Z,12.18
2022-11-08T10:41:12.027Z,12.16
2022-11-08T10:43:45.957Z,12.18
2022-11-08T10:46:32.889Z,12.25
2022-11-08T10:49:12.003Z,12.19
2022-11-08T10:51:40.132Z,12.21
2022-11-08T10:54:08.449Z,12.27
2022-11-08T10:56:56.186Z,12.27
2022-11-08T10:59:32.185Z,12.22
2022-11-08T11:02:02.102Z,12.34
2022-11-08T11:04:32.193Z,12.34
2022-11-08T11:07:02.522Z,12.34
2022-11-08T11:09:30.661Z,12.42
2022-11-08T11:11:59.785Z,12.43
2022-11-08T11:14:27.807Z,12.48
2022-11-08T11:16:58.725Z,12.51
2022-11-08T11:19:29.196Z,12.54
2022-11-08T11:21:59.356Z,12.57
2022-11-08T11:24:27.338Z,12.60
2022-11-08T11:27:05.505Z,12.69
2022-11-08T11:29:35.175Z,12.79
2022-11-08T11:32:22.636Z,12.84
2022-11-08T11:34:57.228Z,12.85
2022-11-08T11:37:41.068Z,12.91
2022-11-08T11:40:17.343Z,12.94
2022-11-08T11:42:55.397Z,13.01
2022-11-08T11:45:30.269Z,13.08
2022-11-08T11:47:59.937Z,13.14
2022-11-08T11:50:40.274Z,13.15
2022-11-08T11:53:15.316Z,13.22
2022-11-08T11:56:05.076Z,13.32
2022-11-08T11:58:53.538Z,13.33
2022-11-08T12:01:33.650Z,13.34
2022-11-08T12:04:31.472Z,13.42
2022-11-08T12:07:05.911Z,13.38
2022-11-08T12:09:49.424Z,13.44
2022-11-08T12:12:32.939Z,13.54
2022-11-08T12:15:06.214Z,13.50
2022-11-08T12:18:07.893Z,13.60
2022-11-08T12:20:46.967Z,13.65
2022-11-08T12:23:44.565Z,13.68
2022-11-08T12:26:20.829Z,13.72
2022-11-08T12:29:09.011Z,13.69
2022-11-08T12:31:46.539Z,13.72
2022-11-08T12:34:21.165Z,13.67
2022-11-08T12:37:01.007Z,13.63
2022-11-08T12:39:36.552Z,13.61
2022-11-08T12:42:22.849Z,13.63
2022-11-08T12:45:16.623Z,13.64
2022-11-08T12:47:52.268Z,13.66
2022-11-08T12:50:30.130Z,13.63
2022-11-08T12:53:32.810Z,13.71
2022-11-08T12:56:04.865Z,13.78
2022-11-08T12:58:37.383Z,13.81
2022-11-08T13:01:11.220Z,13.87
2022-11-08T13:04:06.018Z,13.98
2022-11-08T13:06:44.401Z,13.96
2022-11-08T13:09:22.803Z,13.96
2022-11-08T13:11:58.861Z,13.97
2022-11-08T13:14:27.439Z,13.97
2022-11-08T13:17:22.983Z,13.97
2022-11-08T13:20:04.719Z,13.97
2022-11-08T13:22:58.642Z,13.94
2022-11-08T13:25:35.640Z,13.99
2022-11-08T13:28:53.115Z,14.00
2022-11-08T13:31:28.495Z,14.06
2022-11-08T13:34:21.243Z,14.13
2022-11-08T13:37:01.197Z,14.14
2022-11-08T13:40:00.324Z,14.16
2022-11-08T13:42:41.268Z,14.23
2022-11-08T13:45:33.198Z,14.28
2022-11-08T13:48:03.666Z,14.24
2022-11-08T13:50:54.514Z,14.20
2022-11-08T13:53:47.800Z,14.14
2022-11-08T13:56:25.251Z,14.13
2022-11-08T13:58:53.860Z,14.11
2022-11-08T14:02:03.411Z,14.08
2022-11-08T14:04:33.657Z,14.06
2022-11-08T14:07:12.089Z,14.06
2022-11-08T14:09:48.419Z,13.96
2022-11-08T14:12:24.109Z,13.89
2022-11-08T14:15:05.104Z,13.83
2022-11-08T14:17:44.731Z,13.82
2022-11-08T14:20:28.146Z,13.79
2022-11-08T14:22:57.841Z,13.72
2022-11-08T14:25:30.039Z,13.69
2022-11-08T14:27:58.596Z,13.67
2022-11-08T14:30:27.176Z,13.75
2022-11-08T14:33:17.436Z,13.70
2022-11-08T14:35:54.578Z,13.66
2022-11-08T14:38:22.970Z,13.60
2022-11-08T14:40:53.737Z,13.48
2022-11-08T14:43:23.280Z,13.51
2022-11-08T14:45:52.409Z,13.52
2022-11-08T14:48:24.399Z,13.50
2022-11-08T14:50:59.403Z,13.54
2022-11-08T14:53:29.304Z,13.50
2022-11-08T14:56:03.404Z,13.44
2022-11-08T14:58:31.874Z,13.38
2022-11-08T15:01:02.576Z,13.42
2022-11-08T15:03:34.071Z,13.38
2022-11-08T15:06:03.999Z,13.38
2022-11-08T15:08:35.072Z,13.35
2022-11-08T15:11:05.434Z,13.36
2022-11-08T15:13:41.223Z,13.38
2022-11-08T15:16:10.351Z,13.34
2022-11-08T15:18:41.247Z,13.34
2022-11-08T15:21:23.958Z,13.33
2022-11-08T15:23:54.287Z,13.31
2022-11-08T15:26:25.698Z,13.30
2022-11-08T15:29:02.056Z,13.26
2022-11-08T15:31:33.388Z,13.24
2022-11-08T15:34:03.170Z,13.19
2022-11-08T15:36:34.657Z,13.22
2022-11-08T15:39:03.949Z,13.24
2022-11-08T15:41:39.284Z,13.25
2022-11-08T15:44:15.441Z,13.23
2022-11-08T15:46:43.955Z,13.21
2022-11-08T15:49:19.259Z,13.30
2022-11-08T15:51:47.896Z,13.29
2022-11-08T15:54:16.111Z,13.27
2022-11-08T15:56:45.089Z,13.23
2022-11-08T15:59:21.025Z,13.15
2022-11-08T16:01:56.164Z,13.12
2022-11-08T16:04:25.906Z,13.10
2022-11-08T16:06:53.944Z,13.11
2022-11-08T16:09:21.966Z,13.09
2022-11-08T16:11:50.670Z,13.10
2022-11-08T16:14:21.435Z,13.13
2022-11-08T16:16:49.988Z,13.14
2022-11-08T16:19:20.405Z,13.12
2022-11-08T16:21:49.888Z,13.07
2022-11-08T16:24:18.118Z,13.08
2022-11-08T16:26:46.889Z,13.09
2022-11-08T16:29:21.228Z,13.16
2022-11-08T16:31:49.658Z,13.10
2022-11-08T16:34:17.876Z,13.12
2022-11-08T16:36:47.676Z,13.15
2022-11-08T16:39:18.760Z,13.13
2022-11-08T16:41:47.009Z,13.11
2022-11-08T16:44:15.069Z,13.10
2022-11-08T16:46:43.238Z,13.07
2022-11-08T16:49:20.675Z,13.11
2022-11-08T16:51:49.027Z,13.08
2022-11-08T16:54:23.910Z,13.15
2022-11-08T16:57:03.338Z,13.16
2022-11-08T16:59:40.176Z,13.20
2022-11-08T17:02:19.903Z,13.26
2022-11-08T17:04:48.000Z,13.18
2022-11-08T17:07:15.996Z,13.16
2022-11-08T17:09:45.346Z,13.19
2022-11-08T17:12:13.457Z,13.18
2022-11-08T17:14:41.402Z,13.18
2022-11-08T17:17:10.864Z,13.17
2022-11-08T17:19:38.879Z,13.21
2022-11-08T17:22:07.163Z,13.21
2022-11-08T17:24:35.121Z,13.19
2022-11-08T17:27:04.464Z,13.14
2022-11-08T17:29:32.608Z,13.15
2022-11-08T17:32:00.603Z,13.15
2022-11-08T17:34:29.521Z,13.23
2022-11-08T17:36:57.488Z,13.26
2022-11-08T17:39:25.531Z,13.25
2022-11-08T17:41:53.511Z,13.25
2022-11-08T17:44:22.874Z,13.34
2022-11-08T17:46:50.896Z,13.39
2022-11-08T17:49:19.104Z,13.36
2022-11-08T17:51:47.164Z,13.40
2022-11-08T17:54:15.127Z,13.46
2022-11-08T17:56:43.230Z,13.44
2022-11-08T17:59:11.396Z,13.48
2022-11-08T18:01:40.926Z,13.50
2022-11-08T18:04:09.073Z,13.52
2022-11-08T18:06:38.825Z,13.52
2022-11-08T18:09:07.221Z,13.48
2022-11-08T18:11:35.359Z,13.53
2022-11-08T18:14:04.273Z,13.50
2022-11-08T18:16:34.155Z,13.52
2022-11-08T18:19:03.523Z,13.52
2022-11-08T18:21:31.835Z,13.53
2022-11-08T18:24:00.022Z,13.52
2022-11-08T18:26:28.721Z,13.53
2022-11-08T18:28:57.582Z,13.55
2022-11-08T18:31:26.158Z,13.52
2022-11-08T18:33:54.154Z,13.49
2022-11-08T18:36:24.824Z,13.51
2022-11-08T18:38:53.317Z,13.47
2022-11-08T18:41:25.099Z,13.43
2022-11-08T18:43:53.481Z,13.47
2022-11-08T18:46:23.937Z,13.38
2022-11-08T18:48:53.031Z,13.42
2022-11-08T18:51:23.618Z,13.35
2022-11-08T18:53:52.976Z,13.40
2022-11-08T18:56:21.692Z,13.34
2022-11-08T18:58:49.877Z,13.32
2022-11-08T19:01:18.209Z,13.27
2022-11-08T19:03:46.298Z,13.29
2022-11-08T19:06:14.275Z,13.29
2022-11-08T19:08:43.624Z,13.29
2022-11-08T19:11:12.976Z,13.29
2022-11-08T19:13:42.322Z,13.24
2022-11-08T19:16:14.351Z,13.24
2022-11-08T19:18:43.873Z,13.29
2022-11-08T19:21:14.644Z,13.32
2022-11-08T19:23:45.809Z,13.28
2022-11-08T19:26:16.110Z,13.36
2022-11-08T19:28:46.071Z,13.34
2022-11-08T19:31:15.188Z,13.43
2022-11-08T19:33:43.249Z,13.42
2022-11-08T19:36:14.977Z,13.38
2022-11-08T19:38:44.821Z,13.40
2022-11-08T19:41:14.511Z,13.45
2022-11-08T19:43:44.332Z,13.47
2022-11-08T19:46:14.000Z,13.49
2022-11-08T19:48:44.029Z,13.52
2022-11-08T19:51:14.707Z,13.47
2022-11-08T19:53:44.689Z,13.43
2022-11-08T19:56:15.327Z,13.41
2022-11-08T19:58:44.307Z,13.41
2022-11-08T20:01:15.219Z,13.45
2022-11-08T20:03:43.743Z,13.40
2022-11-08T20:06:12.085Z,13.43
2022-11-08T20:08:40.611Z,13.37
2022-11-08T20:11:14.128Z,13.36
2022-11-08T20:13:42.285Z,13.38
2022-11-08T20:16:11.845Z,13.36
2022-11-08T20:18:40.234Z,13.32
2022-11-08T20:21:09.717Z,13.35
2022-11-08T20:23:38.699Z,13.31
2022-11-08T20:26:08.688Z,13.31
2022-11-08T20:28:41.827Z,13.25
2022-11-08T20:31:13.900Z,13.24
2022-11-08T20:33:42.421Z,13.19
2022-11-08T20:36:12.915Z,13.17
2022-11-08T20:38:41.521Z,13.19
2022-11-08T20:41:12.245Z,13.15
2022-11-08T20:43:42.250Z,13.19
2022-11-08T20:46:12.160Z,13.19
2022-11-08T20:48:42.765Z,13.16
2022-11-08T20:51:13.085Z,13.13
2022-11-08T20:53:41.613Z,13.13
2022-11-08T20:56:12.170Z,13.08
2022-11-08T20:58:43.114Z,13.05
2022-11-08T21:01:13.611Z,13.08
2022-11-08T21:03:42.751Z,13.07
2022-11-08T21:06:12.497Z,13.07
2022-11-08T21:11:30.098Z,13.02
2022-11-08T21:14:02.304Z,13.03
2022-11-08T21:16:38.206Z,13.08
2022-11-08T21:19:10.650Z,13.09
2022-11-08T21:21:38.619Z,12.88
2022-11-08T21:24:07.486Z,13.10
2022-11-08T21:26:36.769Z,13.05
2022-11-08T21:29:07.189Z,13.05
2022-11-08T21:31:35.435Z,13.07
2022-11-08T21:34:03.449Z,13.00
2022-11-08T21:36:31.416Z,13.05
2022-11-08T21:38:59.372Z,13.07
2022-11-08T21:41:27.450Z,13.07
2022-11-08T21:43:55.349Z,13.04
2022-11-08T21:46:26.217Z,13.11
2022-11-08T21:48:55.885Z,13.06
2022-11-08T21:51:24.101Z,13.02
2022-11-08T21:53:54.755Z,13.10
2022-11-08T21:56:24.856Z,13.08
2022-11-08T21:58:53.376Z,13.13
2022-11-08T22:01:25.407Z,13.08
2022-11-08T22:03:58.324Z,13.13
2022-11-08T22:06:26.539Z,13.15
2022-11-08T22:08:54.860Z,13.14
2022-11-08T22:11:23.044Z,13.16
2022-11-08T22:13:51.138Z,13.19
2022-11-08T22:16:19.087Z,13.20
2022-11-08T22:21:40.295Z,13.14
2022-11-08T22:24:10.655Z,13.16
2022-11-08T22:26:38.720Z,13.13
2022-11-08T22:29:07.536Z,13.17
2022-11-08T22:31:35.702Z,13.14
2022-11-08T22:34:04.941Z,13.18
2022-11-08T22:36:33.237Z,13.10
2022-11-08T22:39:02.802Z,13.13
2022-11-08T22:41:31.226Z,13.15
2022-11-08T22:43:59.555Z,13.12
2022-11-08T22:46:27.555Z,13.13
2022-11-08T22:48:55.822Z,13.06
2022-11-08T22:51:23.796Z,13.17
2022-11-08T22:53:51.816Z,13.15
2022-11-08T22:56:21.112Z,13.14
2022-11-08T22:58:49.183Z,13.07
2022-11-08T23:01:17.417Z,13.17
2022-11-08T23:03:46.738Z,12.96
2022-11-08T23:06:15.367Z,12.99
2022-11-08T23:08:43.633Z,13.00
2022-11-08T23:11:29.167Z,12.96
2022-11-08T23:14:16.330Z,12.99
2022-11-08T23:16:46.484Z,12.90
2022-11-08T23:19:34.657Z,12.88
2022-11-08T23:22:21.338Z,12.88
2022-11-08T23:24:49.310Z,12.83
2022-11-08T23:27:36.322Z,12.78
2022-11-08T23:30:36.489Z,12.53
2022-11-08T23:33:05.714Z,12.55
2022-11-08T23:35:33.637Z,12.58
2022-11-08T23:38:01.642Z,12.56
2022-11-08T23:40:47.291Z,12.56
2022-11-08T23:43:34.276Z,12.44
2022-11-08T23:46:07.840Z,12.53
2022-11-08T23:48:35.946Z,12.53
2022-11-08T23:51:04.294Z,12.49
2022-11-08T23:53:34.358Z,12.58
2022-11-08T23:56:02.287Z,12.53
2022-11-08T23:58:30.469Z,12.46
